Barbados Meteorological Services
Auto gathered TAF list
Powered by Apparatus software
For Flight TOM117
Contact Number 1-(246)-535-0021/2/3/4/5/6
WEB: http://www.barbadosweather.org

**********************************************

2021/12/05 18:07
TAF TBPB 051700Z 0518/0618 10020KT 9999 SCT020


**********************************************
2021/12/05 18:06
TAF TAF TAPA 051700Z 0518/0618 07014KT 9999 SCT020 PROB30
TEMPO 0520/0606 07015G25KT SHRA


**********************************************
2021/12/05 18:18
TAF LPPR 051700Z 0518/0618 33012KT 9999 SCT035
BECMG 0518/0521 33005KT
BECMG 0601/0604 VRB02KT FEW015 BKN030
BECMG 0609/0612 18010KT SCT012 BKN018
TEMPO 0613/0618 5000 RADZ BR SCT003 BKN005


**********************************************
2021/12/05 18:18
TAF LPPD 051700Z 0518/0618 29010KT 9999 FEW020 BKN045
TEMPO 0518/0618 SCT025
BECMG 0519/0522 VRB05KT


**********************************************
2021/12/05 18:18
TAF LPLA 051702Z 0518/0618 VRB05KT 9999 FEW015 SCT030
BECMG 0612/0614 22008KT


**********************************************
2021/12/05 18:18
TAF TAF LPAZ 051700Z 0518/0624 34008KT 9999 FEW020 BKN045
TEMPO 0518/0624 SCT025
BECMG 0519/0522 VRB05KT


**********************************************
2021/12/05 18:24
TAF LIMC 051700Z 0518/0624 VRB05KT CAVOK
BECMG 0522/0524 3000 BR PROB30
TEMPO 0600/0606 1000 BCFG BKN010
BECMG 0608/0610 9999


**********************************************
2021/12/05 18:21
TAF LFPO 051700Z 0518/0624 32010KT 9999 SCT030
TEMPO 0518/0523 4000 -SHRA BKN014 SCT020CB
TEMPO 0615/0618 RA BKN014


**********************************************
2021/12/05 18:29
TAF LEVT 051700Z 0518/0618 32009KT 9000 FEW020 SCT030 TX10/0618Z TN02/0524Z
TEMPO 0518/0604 3000 RA BKN010 PROB40
TEMPO 0604/0612 4500 -RA BKN010
TEMPO 0612/0618 3000 RA SHRA SCT030TCU PROB30
TEMPO 0601/0603 30015G25KT PROB30
TEMPO 0606/0610 3000 -RA BR BKN010


**********************************************
2021/12/05 18:30
TAF LEMD 051700Z 0518/0624 28011KT 9999 FEW045 TX13/0615Z TN04/0606Z
TEMPO 0520/0524 VRB05KT
BECMG 0600/0602 26008KT


**********************************************
2021/12/05 18:21
TAF ESSA 051730Z 0518/0618 04006KT 9999 -SN SCT015 BKN025 PROB40 0518/0520 BKN014


**********************************************
2021/12/05 18:27
TAF TAF ELLX 051700Z 0518/0624 12004KT 9999 BKN012
BECMG 0518/0520 05002KT 3000 BR BKN005
BECMG 0522/0524 0700 FG VV002 PROB30
TEMPO 0522/0610 VRB02KT 0200 FZFG VV001
BECMG 0610/0612 20007KT 7000 BKN010
TEMPO 0619/0624 1200 SN BKN004


**********************************************
2012/04/19 12:15
TAF TAF EGTE 191401Z 1912/1924 31016KT 9999 SCT030 SCT035 PROB40
TEMPO 1915/1918 7000 SHRA BKN014


**********************************************
2021/12/05 18:06
TAF EGPK 051654Z 0518/0618 06003KT 9999 FEW030
BECMG 0601/0604 19012KT
TEMPO 0602/0608 19016G28KT 7000 -RA BKN014 PROB30
TEMPO 0602/0608 4000 RADZ
BECMG 0606/0609 25012KT
TEMPO 0608/0618 25018G28KT 6000 SHRA BKN014CB PROB30
TEMPO 0612/0618 3000 +SHRAGS BKN009


**********************************************
2021/12/05 18:06
TAF EGNT 051655Z 0518/0618 33008KT 9999 BKN018 PROB30
TEMPO 0518/0520 6000 SHRA BKN006
BECMG 0600/0603 17010KT
TEMPO 0608/0614 6000 RA BKN014 PROB30
TEMPO 0608/0614 3000 +RA BKN008


**********************************************
2021/12/05 18:06
TAF EGLL 051654Z 0518/0624 32010KT 9999 SCT014 PROB30
TEMPO 0518/0601 BKN014
BECMG 0601/0604 VRB03KT PROB30
TEMPO 0601/0603 BKN006
TEMPO 0602/0610 8000 PROB30 0603/0610 3000 BR BKN003
BECMG 0608/0611 19010KT
TEMPO 0610/0614 6000 RA BKN010
BECMG 0612/0615 27010KT PROB30
TEMPO 0616/0619 6000 SHRA BKN012


**********************************************
2021/12/05 18:09
TAF EGKK 051658Z 0518/0624 33011KT 9999 SCT020 PROB30
TEMPO 0518/0604 BKN012 PROB40 0600/0604 7000
BECMG 0603/0606 20006KT PROB40 0604/0609 3000 BR BKN004
BECMG 0610/0613 26010KT
TEMPO 0611/0615 6000 RA BKN012 PROB30
TEMPO 0615/0620 6000 SHRA BKN014


**********************************************
2021/12/05 19:15
TAF
AMD EGFF 051908Z 0519/0618 29010KT 9999 SCT030
BECMG 0519/0522 VRB03KT
BECMG 0604/0607 17010KT
TEMPO 0605/0611 6000 RA BKN014 PROB30
TEMPO 0607/0611 3000 RADZ +RA BKN008
BECMG 0609/0612 28018G30KT
TEMPO 0613/0618 6000 SHRA BKN010


**********************************************
2021/12/05 18:06
TAF EGCC 051656Z 0518/0624 32010KT 9999 SCT030
TEMPO 0519/0603 6000
BECMG 0520/0523 17005KT
TEMPO 0607/0612 6000 RA BKN014 PROB30
TEMPO 0610/0624 3000 +SHRA BKN008 BKN020CB
BECMG 0611/0614 27012KT
TEMPO 0611/0624 28020G35KT


**********************************************
2021/12/05 18:06
TAF EGBB 051655Z 0518/0618 32010KT 9999 SCT020 PROB30
TEMPO 0518/0521 8000 -SHRA BKN010
BECMG 0523/0602 VRB04KT PROB30 0600/0606 6000
BECMG 0607/0610 20010KT
TEMPO 0607/0613 7000 RA BKN010 PROB30
TEMPO 0610/0613 4000 +RA BKN006
BECMG 0612/0615 27008KT PROB30
TEMPO 0613/0618 7000 SHRA


**********************************************
2021/12/05 18:27
TAF EDDM 051700Z 0518/0624 VRB03KT 9999 SCT012 PROB30
TEMPO 0518/0520 BKN010
BECMG 0520/0523 3000 BR BKN005 PROB30
TEMPO 0523/0602 1500 BR BKN003 PROB40
TEMPO 0602/0606 2000 -SHSN BR SCT010TCU
BECMG 0608/0610 27005KT 9000 BKN010
BECMG 0610/0612 FEW012 BKN020
BECMG 0615/0617 21003KT


**********************************************
2021/12/05 18:27
TAF EDDL 051700Z 0518/0624 06003KT 9999 BKN025
BECMG 0606/0608 14005KT PROB40
TEMPO 0606/0610 3500 BR
BECMG 0611/0613 17010KT
TEMPO 0620/0624 20015KT RA BKN008
BECMG 0622/0624 25010KT


**********************************************
2021/12/05 18:27
TAF EDDK 051700Z 0518/0624 10003KT 9999 BKN030 PROB30
TEMPO 0605/0608 4000 BR
BECMG 0610/0612 14008KT
TEMPO 0622/0624 RA BKN010


**********************************************
2021/12/05 18:27
TAF TAF EDDF 051700Z 0518/0624 13005KT 9999 BKN040
BECMG 0520/0523 07003KT
TEMPO 0521/0602 BKN012
BECMG 0602/0605 BKN012 PROB30
TEMPO 0602/0609 2000 BCFG BKN004
BECMG 0607/0609 19005KT
BECMG 0610/0613 SCT012 BKN020 PROB30
TEMPO 0622/0624 SNRA BKN012


**********************************************
2021/12/05 18:33
TAF TAF EBBR 051709Z 0518/0624 VRB03KT 8000 SCT012 BKN020
BECMG 0522/0601 2000 BR FEW012
BECMG 0601/0603 0300 FG FZFG BKN001
BECMG 0608/0611 9999 NSW FEW008
BECMG 0612/0614 19010KT
BECMG 0615/0617 4500 -RA SCT008 BKN012
BECMG 0619/0621 27012KT 9999 NSW SCT014


**********************************************